Briefing drone pour Belleville

Rechercher une autre localisation

Conditions de vol :


Nous sommes le : Samedi 11 juillet 2020
Il est 02:14 UTC (04:14 LT)

Lever de soleil : 03:19 UTC (05:19 LT)
Coucher de soleil : 20:03 UTC (22:03 LT)

Météo

L'essentiel des conditions de vol

VIGILANCE MÉTÉO FRANCE - Meurthe-et-Moselle (54)
Pas de vigilances particulieres
CARTE TEMSI
CARTES DES FRONTS
METAR de LFSN
LFSN 110200Z AUTO 35007KT CAVOK 15/10 Q1020

Date d'émission: 11/07/2020
Heure d'émission: 02:00 UTC
Vent: 350° pour 7 KT (13 km/h)
Visibilité horizontale: > 10 km
Plafond : Plafond et visibilité OK (CAVOK)
Température: 15 °C
Point de rosée: 10 °C
Humidité: 72%
Pression (QNH): 1020 hPa
TAF de LFSN
LFSN 141600Z 1416/1512 CNL

Conditions prévues :

Heure d'émission : Bulletin éffectué le 14 à 16:00 UTC
Prévision : Valide du 14 a 16:00 UTC au 15 a 12:00 UTC
Nuages : à 0ft (0 m)
WEBCAM POUR BELLEVILLE

Réglementation

Voler en sécurité

CARTES AERONAUTIQUE 1/500.000
CARTES VAC (LFSN)
SUP AIP




Chargement des AIP...
NOTAM (BELLEVILLE + Terrain à proximité / FIR )




Chargement des NOTAMS...
CONTACT PREFECTURE 54


Avertissement : Les données mises à disposition sont indicatives. Oxygène Drone ne pourra être tenu responsable de dégâts causés aux biens et aux personnes.